createdAt,value
2022-08-20T00:01:23.618Z,101032.69
2022-08-20T00:03:53.262Z,101028.56
2022-08-20T00:06:25.075Z,101014.31
2022-08-20T00:08:55.198Z,101005.78
2022-08-20T00:11:29.007Z,100996.13
2022-08-20T00:14:04.198Z,100995.44
2022-08-20T00:16:39.781Z,100994.41
2022-08-20T00:19:11.007Z,100989.13
2022-08-20T00:21:39.871Z,100987.44
2022-08-20T00:24:10.050Z,100993.41
2022-08-20T00:26:52.326Z,100995.94
2022-08-20T00:29:22.483Z,100993.41
2022-08-20T00:31:51.670Z,101007.19
2022-08-20T00:34:21.170Z,100997.66
2022-08-20T00:36:51.794Z,101002.81
2022-08-20T00:39:21.790Z,101001.25
2022-08-20T00:41:52.144Z,101002.81
2022-08-20T00:44:24.012Z,100997.69
2022-08-20T00:46:54.681Z,100994.97
2022-08-20T00:49:28.071Z,100994.31
2022-08-20T00:52:02.290Z,100998.41
2022-08-20T00:54:39.805Z,101003.50
2022-08-20T00:57:12.958Z,101006.75
2022-08-20T00:59:44.743Z,101010.28
2022-08-20T01:05:31.835Z,101018.13
2022-08-20T01:08:00.460Z,101021.53
2022-08-20T01:10:36.037Z,101033.44
2022-08-20T01:13:11.165Z,101039.38
2022-08-20T01:15:43.523Z,101046.53
2022-08-20T01:18:17.671Z,101049.41
2022-08-20T01:20:53.740Z,101058.91
2022-08-20T01:23:34.904Z,101053.66
2022-08-20T01:26:11.358Z,101046.69
2022-08-20T01:28:45.903Z,101049.78
2022-08-20T01:31:20.130Z,101055.88
2022-08-20T01:33:51.325Z,101045.84
2022-08-20T01:36:26.532Z,101040.75
2022-08-20T01:38:56.016Z,101032.28
2022-08-20T01:42:01.288Z,101027.69
2022-08-20T01:44:31.081Z,101034.50
2022-08-20T01:47:12.509Z,101028.50
2022-08-20T01:49:49.993Z,101023.41
2022-08-20T01:52:31.584Z,101018.81
2022-08-20T01:55:00.675Z,101018.13
2022-08-20T01:57:30.641Z,101010.81
2022-08-20T01:59:59.628Z,101011.50
2022-08-20T02:02:28.633Z,101009.66
2022-08-20T02:05:00.991Z,101013.41
2022-08-20T02:07:32.493Z,101019.34
2022-08-20T02:10:02.029Z,101020.69
2022-08-20T02:12:32.470Z,101023.78
2022-08-20T02:15:01.060Z,101025.78
2022-08-20T02:17:30.425Z,101018.81
2022-08-20T02:20:08.625Z,101021.38
2022-08-20T02:22:49.956Z,101017.63
2022-08-20T02:25:20.797Z,101025.63
2022-08-20T02:27:55.971Z,101019.66
2022-08-20T02:30:33.495Z,101015.06
2022-08-20T02:33:04.216Z,101012.34
2022-08-20T02:35:35.100Z,101023.59
2022-08-20T02:38:05.132Z,101016.09
2022-08-20T02:40:35.219Z,101013.38
2022-08-20T02:43:06.767Z,101017.28
2022-08-20T02:45:37.443Z,101022.56
2022-08-20T02:48:07.019Z,101024.25
2022-08-20T02:50:35.780Z,101014.91
2022-08-20T02:53:04.922Z,101017.47
2022-08-20T02:55:34.217Z,101022.75
2022-08-20T02:58:04.269Z,101023.94
2022-08-20T03:00:38.290Z,101030.72
2022-08-20T03:05:30.996Z,101019.84
2022-08-20T03:08:00.304Z,101022.88
2022-08-20T03:10:33.559Z,101028.50
2022-08-20T03:13:03.201Z,101023.56
2022-08-20T03:15:34.183Z,101017.13
2022-08-20T03:18:02.922Z,101020.84
2022-08-20T03:20:33.552Z,101011.84
2022-08-20T03:23:02.682Z,101016.78
2022-08-20T03:25:31.754Z,101007.63
2022-08-20T03:28:01.302Z,101016.09
2022-08-20T03:30:31.468Z,101018.66
2022-08-20T03:33:01.245Z,101013.03
2022-08-20T03:35:34.289Z,101013.91
2022-08-20T03:38:08.678Z,101003.50
2022-08-20T03:40:38.180Z,101004.03
2022-08-20T03:43:11.496Z,101010.31
2022-08-20T03:45:44.146Z,101012.69
2022-08-20T03:48:17.120Z,101013.38
2022-08-20T03:50:50.870Z,101011.84
2022-08-20T03:53:20.646Z,101004.22
2022-08-20T03:55:58.259Z,101007.94
2022-08-20T03:58:35.773Z,101007.25
2022-08-20T04:01:37.046Z,101008.97
2022-08-20T04:03:58.923Z,101024.91
2022-08-20T04:06:29.866Z,101024.25
2022-08-20T04:09:00.306Z,101029.00
2022-08-20T04:11:29.042Z,101030.03
2022-08-20T04:13:57.699Z,101033.63
2022-08-20T04:16:27.819Z,101035.16
2022-08-20T04:19:02.500Z,101044.00
2022-08-20T04:21:34.768Z,101046.53
2022-08-20T04:24:06.194Z,101052.81
2022-08-20T04:26:39.450Z,101050.44
2022-08-20T04:29:08.033Z,101057.59
2022-08-20T04:31:36.718Z,101065.75
2022-08-20T04:34:07.877Z,101065.59
2022-08-20T04:36:38.020Z,101066.28
2022-08-20T04:39:06.837Z,101081.22
2022-08-20T04:41:34.467Z,101074.78
2022-08-20T04:44:03.023Z,101078.69
2022-08-20T04:46:32.818Z,101074.25
2022-08-20T04:49:03.457Z,101079.38
2022-08-20T04:51:32.494Z,101081.94
2022-08-20T04:54:04.790Z,101090.59
2022-08-20T04:56:38.999Z,101084.16
2022-08-20T04:59:09.371Z,101083.13
2022-08-20T05:01:38.187Z,101090.28
2022-08-20T05:05:31.262Z,101082.78
2022-08-20T05:08:00.274Z,101088.03
2022-08-20T05:10:29.984Z,101095.34
2022-08-20T05:12:58.990Z,101087.19
2022-08-20T05:15:27.815Z,101093.31
2022-08-20T05:18:00.709Z,101097.75
2022-08-20T05:20:34.991Z,101097.06
2022-08-20T05:23:04.830Z,101096.72
2022-08-20T05:25:34.760Z,101107.28
2022-08-20T05:28:09.651Z,101107.22
2022-08-20T05:30:40.608Z,101097.19
2022-08-20T05:33:11.607Z,101097.34
2022-08-20T05:35:55.207Z,101084.41
2022-08-20T05:38:29.546Z,101087.09
2022-08-20T05:40:58.120Z,101087.75
2022-08-20T05:43:26.944Z,101081.09
2022-08-20T05:45:56.855Z,101073.59
2022-08-20T05:48:26.687Z,101080.22
2022-08-20T05:50:57.102Z,101076.81
2022-08-20T05:53:27.375Z,101076.97
2022-08-20T05:55:56.143Z,101075.41
2022-08-20T05:58:29.498Z,101071.97
2022-08-20T06:00:59.228Z,101065.13
2022-08-20T06:03:45.456Z,101063.22
2022-08-20T06:06:18.343Z,101059.22
2022-08-20T06:09:04.334Z,101058.50
2022-08-20T06:11:37.047Z,101047.84
2022-08-20T06:14:06.795Z,101049.84
2022-08-20T06:16:37.426Z,101047.34
2022-08-20T06:19:06.957Z,101044.22
2022-08-20T06:21:41.954Z,101055.72
2022-08-20T06:24:10.897Z,101051.88
2022-08-20T06:26:39.572Z,101049.63
2022-08-20T06:29:08.523Z,101049.78
2022-08-20T06:31:39.989Z,101056.72
2022-08-20T06:34:08.697Z,101052.34
2022-08-20T06:36:37.202Z,101052.34
2022-08-20T06:39:07.315Z,101051.59
2022-08-20T06:41:36.999Z,101058.25
2022-08-20T06:44:07.647Z,101058.59
2022-08-20T06:46:36.637Z,101054.50
2022-08-20T06:49:06.924Z,101055.75
2022-08-20T06:51:37.503Z,101056.94
2022-08-20T06:54:10.462Z,101061.38
2022-08-20T06:56:39.135Z,101059.81
2022-08-20T06:59:07.807Z,101062.94
2022-08-20T07:01:36.484Z,101061.66
2022-08-20T07:05:37.140Z,101066.75
2022-08-20T07:08:06.712Z,101065.28
2022-08-20T07:10:35.405Z,101059.28
2022-08-20T07:13:04.158Z,101065.47
2022-08-20T07:15:33.757Z,101060.97
2022-08-20T07:18:05.932Z,101062.56
2022-08-20T07:20:40.399Z,101079.44
2022-08-20T07:23:12.146Z,101068.16
2022-08-20T07:25:43.143Z,101067.34
2022-08-20T07:28:20.205Z,101065.84
2022-08-20T07:31:13.538Z,101072.72
2022-08-20T07:33:45.110Z,101077.88
2022-08-20T07:36:15.325Z,101077.81
2022-08-20T07:38:47.002Z,101082.75
2022-08-20T07:41:16.172Z,101086.66
2022-08-20T07:43:46.616Z,101079.63
2022-08-20T07:46:20.648Z,101084.13
2022-08-20T07:48:51.738Z,101088.28
2022-08-20T07:51:23.981Z,101088.41
2022-08-20T07:53:54.374Z,101090.81
2022-08-20T07:56:26.325Z,101092.41
2022-08-20T07:58:59.350Z,101100.91
2022-08-20T08:01:32.343Z,101100.13
2022-08-20T08:04:02.620Z,101108.00
2022-08-20T08:06:33.298Z,101104.53
2022-08-20T08:09:07.797Z,101106.97
2022-08-20T08:11:46.393Z,101116.53
2022-08-20T08:14:19.169Z,101118.59
2022-08-20T08:16:48.356Z,101119.50
2022-08-20T08:19:19.585Z,101124.50
2022-08-20T08:21:49.845Z,101125.59
2022-08-20T08:24:21.839Z,101123.13
2022-08-20T08:26:52.662Z,101120.63
2022-08-20T08:29:21.316Z,101112.94
2022-08-20T08:31:50.493Z,101109.66
2022-08-20T08:34:19.329Z,101103.66
2022-08-20T08:36:51.009Z,101100.09
2022-08-20T08:39:20.982Z,101104.13
2022-08-20T08:41:51.724Z,101102.00
2022-08-20T08:44:27.227Z,101094.84
2022-08-20T08:47:02.558Z,101094.16
2022-08-20T08:49:38.102Z,101102.59
2022-08-20T08:52:14.888Z,101102.91
2022-08-20T08:54:49.474Z,101111.03
2022-08-20T08:57:18.867Z,101106.38
2022-08-20T09:00:03.812Z,101108.28
2022-08-20T09:05:41.138Z,101106.75
2022-08-20T09:08:17.297Z,101099.97
2022-08-20T09:10:46.612Z,101103.84
2022-08-20T09:13:15.444Z,101106.38
2022-08-20T09:15:44.322Z,101098.78
2022-08-20T09:18:12.988Z,101106.22
2022-08-20T09:20:45.995Z,101111.00
2022-08-20T09:23:14.921Z,101108.28
2022-08-20T09:25:43.849Z,101116.09
2022-08-20T09:28:12.820Z,101115.47
2022-08-20T09:30:43.414Z,101112.94
2022-08-20T09:33:14.109Z,101127.03
2022-08-20T09:35:46.053Z,101132.66
2022-08-20T09:38:14.949Z,101127.31
2022-08-20T09:40:44.620Z,101112.72
2022-08-20T09:43:14.021Z,101120.59
2022-08-20T09:45:43.152Z,101122.59
2022-08-20T09:48:11.699Z,101118.25
2022-08-20T09:50:49.419Z,101125.88
2022-08-20T09:53:21.832Z,101123.69
2022-08-20T09:55:55.408Z,101119.38
2022-08-20T09:58:35.321Z,101116.91
2022-08-20T10:01:14.233Z,101123.72
2022-08-20T10:03:43.378Z,101130.06
2022-08-20T10:06:14.932Z,101119.84
2022-08-20T10:08:43.981Z,101128.50
2022-08-20T10:11:13.496Z,101124.28
2022-08-20T10:13:42.323Z,101125.19
2022-08-20T10:16:11.226Z,101126.06
2022-08-20T10:18:39.860Z,101126.06
2022-08-20T10:21:14.011Z,101126.47
2022-08-20T10:23:43.243Z,101135.56
2022-08-20T10:26:13.898Z,101140.78
2022-08-20T10:28:42.744Z,101142.59
2022-08-20T10:31:13.611Z,101137.63
2022-08-20T10:33:43.596Z,101135.50
2022-08-20T10:36:19.097Z,101139.94
2022-08-20T10:38:49.183Z,101148.78
2022-08-20T10:41:18.086Z,101144.38
2022-08-20T10:43:46.871Z,101138.31
2022-08-20T10:46:19.658Z,101139.72
2022-08-20T10:48:48.582Z,101138.50
2022-08-20T10:51:18.992Z,101141.03
2022-08-20T10:53:47.931Z,101133.03
2022-08-20T10:56:16.656Z,101136.34
2022-08-20T10:58:45.399Z,101131.22
2022-08-20T11:01:31.560Z,101136.53
2022-08-20T11:05:32.763Z,101128.13
2022-08-20T11:08:04.909Z,101139.69
2022-08-20T11:10:36.928Z,101136.94
2022-08-20T11:13:08.346Z,101144.34
2022-08-20T11:15:40.882Z,101147.34
2022-08-20T11:18:10.859Z,101147.94
2022-08-20T11:20:41.599Z,101151.31
2022-08-20T11:23:13.578Z,101163.81
2022-08-20T11:25:42.887Z,101163.31
2022-08-20T11:28:13.148Z,101157.09
2022-08-20T11:30:43.228Z,101157.22
2022-08-20T11:33:14.966Z,101164.47
2022-08-20T11:35:49.509Z,101165.03
2022-08-20T11:38:21.985Z,101159.31
2022-08-20T11:40:50.741Z,101158.53
2022-08-20T11:43:19.421Z,101162.88
2022-08-20T11:45:55.777Z,101160.06
2022-08-20T11:48:25.052Z,101162.84
2022-08-20T11:50:55.853Z,101169.41
2022-08-20T11:53:24.728Z,101177.84
2022-08-20T11:55:54.645Z,101172.56
2022-08-20T11:58:25.210Z,101169.41
2022-08-20T12:00:56.249Z,101169.16
2022-08-20T12:03:28.741Z,101165.38
2022-08-20T12:06:04.335Z,101157.72
2022-08-20T12:08:35.447Z,101171.03
2022-08-20T12:11:05.620Z,101169.94
2022-08-20T12:13:48.194Z,101173.97
2022-08-20T12:16:21.510Z,101170.63
2022-08-20T12:18:50.776Z,101172.22
2022-08-20T12:21:21.560Z,101175.84
2022-08-20T12:23:52.678Z,101181.25
2022-08-20T12:26:25.242Z,101167.84
2022-08-20T12:28:55.632Z,101180.84
2022-08-20T12:31:24.270Z,101172.78
2022-08-20T12:33:52.949Z,101167.53
2022-08-20T12:36:23.247Z,101175.06
2022-08-20T12:38:51.970Z,101179.84
2022-08-20T12:41:21.047Z,101181.09
2022-08-20T12:43:50.077Z,101173.88
2022-08-20T12:46:19.188Z,101175.22
2022-08-20T12:48:47.779Z,101180.31
2022-08-20T12:51:16.464Z,101175.81
2022-08-20T12:53:47.587Z,101175.31
2022-08-20T12:56:20.372Z,101190.94
2022-08-20T12:58:49.155Z,101177.50
2022-08-20T13:01:17.813Z,101182.88
2022-08-20T13:05:31.778Z,101180.75
2022-08-20T13:08:00.774Z,101186.25
2022-08-20T13:10:33.320Z,101174.03
2022-08-20T13:13:03.195Z,101183.53
2022-08-20T13:15:33.057Z,101183.34
2022-08-20T13:18:06.444Z,101173.63
2022-08-20T13:20:38.058Z,101178.50
2022-08-20T13:23:07.292Z,101166.03
2022-08-20T13:25:36.403Z,101175.56
2022-08-20T13:28:06.965Z,101175.31
2022-08-20T13:30:38.918Z,101166.84
2022-08-20T13:33:07.976Z,101176.56
2022-08-20T13:35:38.195Z,101174.88
2022-08-20T13:38:06.926Z,101163.47
2022-08-20T13:40:35.832Z,101179.78
2022-08-20T13:43:07.044Z,101176.63
2022-08-20T13:45:37.043Z,101171.94
2022-08-20T13:48:16.527Z,101167.28
2022-08-20T13:50:50.150Z,101161.34
2022-08-20T13:53:18.822Z,101160.09
2022-08-20T13:55:47.661Z,101166.41
2022-08-20T13:58:17.557Z,101161.34
2022-08-20T14:00:47.698Z,101166.66
2022-08-20T14:03:20.130Z,101162.41
2022-08-20T14:05:55.942Z,101155.63
2022-08-20T14:08:25.646Z,101157.53
2022-08-20T14:10:54.712Z,101153.06
2022-08-20T14:13:28.169Z,101155.41
2022-08-20T14:15:57.830Z,101163.63
2022-08-20T14:18:26.712Z,101162.19
2022-08-20T14:20:56.902Z,101166.84
2022-08-20T14:23:25.478Z,101149.94
2022-08-20T14:25:54.164Z,101156.94
2022-08-20T14:28:25.309Z,101161.34
2022-08-20T14:30:54.225Z,101163.84
2022-08-20T14:33:24.790Z,101161.06
2022-08-20T14:35:58.685Z,101164.00
2022-08-20T14:38:31.600Z,101174.53
2022-08-20T14:41:00.919Z,101163.13
2022-08-20T14:43:29.404Z,101166.84
2022-08-20T14:45:58.022Z,101173.09
2022-08-20T14:48:28.375Z,101173.03
2022-08-20T14:50:59.728Z,101169.50
2022-08-20T14:53:28.584Z,101173.41
2022-08-20T14:55:57.402Z,101176.06
2022-08-20T14:58:26.207Z,101178.88
2022-08-20T15:00:57.535Z,101178.06
2022-08-20T15:05:30.023Z,101175.09
2022-08-20T15:07:59.551Z,101177.38
2022-08-20T15:10:34.468Z,101182.44
2022-08-20T15:13:03.159Z,101181.97
2022-08-20T15:15:32.176Z,101182.94
2022-08-20T15:18:01.663Z,101185.28
2022-08-20T15:20:36.071Z,101190.22
2022-08-20T15:23:05.993Z,101194.47
2022-08-20T15:25:38.108Z,101190.88
2022-08-20T15:28:10.570Z,101193.41
2022-08-20T15:30:42.764Z,101202.94
2022-08-20T15:33:12.716Z,101201.09
2022-08-20T15:35:42.842Z,101196.91
2022-08-20T15:38:11.452Z,101201.13
2022-08-20T15:40:40.150Z,101193.97
2022-08-20T15:43:09.287Z,101189.03
2022-08-20T15:45:38.281Z,101185.75
2022-08-20T15:48:14.819Z,101180.47
2022-08-20T15:51:12.477Z,101193.34
2022-08-20T15:53:54.282Z,101193.41
2022-08-20T15:56:42.251Z,101192.50
2022-08-20T15:59:47.037Z,101193.19
2022-08-20T16:02:47.670Z,101197.03
2022-08-20T16:05:34.118Z,101199.16
2022-08-20T16:08:23.396Z,101200.72
2022-08-20T16:11:07.256Z,101202.13
2022-08-20T16:13:42.883Z,101197.44
2022-08-20T16:16:26.976Z,101198.78
2022-08-20T16:18:56.502Z,101199.88
2022-08-20T16:21:32.932Z,101203.19
2022-08-20T16:24:03.614Z,101207.84
2022-08-20T16:27:01.513Z,101204.69
2022-08-20T16:29:46.943Z,101210.59
2022-08-20T16:32:31.874Z,101210.47
2022-08-20T16:35:07.705Z,101208.53
2022-08-20T16:37:45.220Z,101220.06
2022-08-20T16:40:28.179Z,101220.06
2022-08-20T16:43:01.260Z,101220.00
2022-08-20T16:45:38.046Z,101215.06
2022-08-20T16:48:12.796Z,101218.59
2022-08-20T16:50:52.719Z,101218.41
2022-08-20T16:53:25.700Z,101226.00
2022-08-20T16:55:57.739Z,101217.28
2022-08-20T16:58:27.088Z,101217.97
2022-08-20T17:01:12.331Z,101213.09
2022-08-20T17:05:45.873Z,101213.75
2022-08-20T17:08:24.584Z,101219.09
2022-08-20T17:11:01.507Z,101213.78
2022-08-20T17:13:33.471Z,101205.78
2022-08-20T17:16:05.549Z,101198.84
2022-08-20T17:18:37.856Z,101206.84
2022-08-20T17:21:23.171Z,101215.50
2022-08-20T17:23:59.198Z,101210.38
2022-08-20T17:26:36.277Z,101208.69
2022-08-20T17:29:17.703Z,101217.94
2022-08-20T17:31:52.198Z,101221.53
2022-08-20T17:34:28.715Z,101211.50
2022-08-20T17:37:04.273Z,101205.75
2022-08-20T17:39:34.537Z,101211.25
2022-08-20T17:42:10.073Z,101210.22
2022-08-20T17:44:46.940Z,101207.63
2022-08-20T17:47:20.118Z,101223.50
2022-08-20T17:50:09.822Z,101218.69
2022-08-20T17:52:49.400Z,101231.34
2022-08-20T17:55:19.194Z,101228.28
2022-08-20T17:57:53.237Z,101240.47
2022-08-20T18:00:28.957Z,101232.13
2022-08-20T18:03:03.138Z,101240.13
2022-08-20T18:05:37.066Z,101237.91
2022-08-20T18:08:30.579Z,101240.59
2022-08-20T18:11:10.257Z,101249.78
2022-08-20T18:14:00.843Z,101244.19
2022-08-20T18:16:40.676Z,101252.84
2022-08-20T18:19:23.394Z,101239.47
2022-08-20T18:22:13.348Z,101247.38
2022-08-20T18:24:53.319Z,101248.25
2022-08-20T18:27:27.709Z,101247.09
2022-08-20T18:30:01.133Z,101245.78
2022-08-20T18:32:35.943Z,101261.00
2022-08-20T18:35:33.242Z,101263.34
2022-08-20T18:38:31.986Z,101269.50
2022-08-20T18:41:12.134Z,101264.72
2022-08-20T18:43:43.306Z,101269.88
2022-08-20T18:46:27.294Z,101275.66
2022-08-20T18:49:01.900Z,101278.09
2022-08-20T18:51:41.307Z,101274.31
2022-08-20T18:54:23.232Z,101279.13
2022-08-20T18:57:06.866Z,101280.00
2022-08-20T18:59:46.029Z,101281.53
2022-08-20T19:05:41.595Z,101282.22
2022-08-20T19:08:13.136Z,101287.13
2022-08-20T19:10:54.521Z,101280.84
2022-08-20T19:14:14.245Z,101285.75
2022-08-20T19:16:49.073Z,101288.50
2022-08-20T19:19:20.843Z,101286.97
2022-08-20T19:21:52.291Z,101289.19
2022-08-20T19:24:28.626Z,101286.13
2022-08-20T19:27:04.719Z,101283.91
2022-08-20T19:29:38.294Z,101284.94
2022-08-20T19:32:10.713Z,101286.97
2022-08-20T19:34:40.098Z,101278.97
2022-08-20T19:37:35.070Z,101281.53
2022-08-20T19:40:19.746Z,101292.25
2022-08-20T19:42:49.473Z,101285.25
2022-08-20T19:45:29.307Z,101291.72
2022-08-20T19:48:32.339Z,101286.41
2022-08-20T19:51:10.256Z,101285.44
2022-08-20T19:53:47.368Z,101287.13
2022-08-20T19:56:20.227Z,101290.72
2022-08-20T19:59:01.415Z,101290.19
2022-08-20T20:01:30.423Z,101291.03
2022-08-20T20:04:02.959Z,101290.34
2022-08-20T20:06:38.029Z,101296.81
2022-08-20T20:09:17.742Z,101292.84
2022-08-20T20:11:54.529Z,101289.63
2022-08-20T20:14:28.830Z,101285.84
2022-08-20T20:16:59.426Z,101294.41
2022-08-20T20:19:30.070Z,101292.69
2022-08-20T20:22:24.146Z,101297.97
2022-08-20T20:25:08.603Z,101292.38
2022-08-20T20:27:38.162Z,101289.31
2022-08-20T20:30:15.913Z,101293.25
2022-08-20T20:32:53.722Z,101299.41
2022-08-20T20:35:33.876Z,101292.91
2022-08-20T20:38:09.085Z,101282.53
2022-08-20T20:40:53.031Z,101295.31
2022-08-20T20:43:30.163Z,101294.28
2022-08-20T20:46:07.675Z,101297.34
2022-08-20T20:48:48.444Z,101305.19
2022-08-20T20:51:27.320Z,101301.09
2022-08-20T20:54:00.090Z,101301.25
2022-08-20T20:56:35.391Z,101294.81
2022-08-20T20:59:07.533Z,101298.00
2022-08-20T21:01:48.115Z,101296.16
2022-08-20T21:05:30.590Z,101303.47
2022-08-20T21:08:03.418Z,101307.03
2022-08-20T21:10:35.528Z,101314.66
2022-08-20T21:13:04.322Z,101311.28
2022-08-20T21:15:35.279Z,101315.50
2022-08-20T21:18:08.256Z,101313.47
2022-08-20T21:20:38.645Z,101318.91
2022-08-20T21:23:07.923Z,101317.06
2022-08-20T21:25:37.946Z,101319.63
2022-08-20T21:28:06.896Z,101316.72
2022-08-20T21:30:35.831Z,101316.22
2022-08-20T21:33:04.486Z,101314.84
2022-08-20T21:35:33.431Z,101317.53
2022-08-20T21:38:03.546Z,101321.09
2022-08-20T21:40:32.894Z,101324.47
2022-08-20T21:43:06.717Z,101330.06
2022-08-20T21:45:36.276Z,101325.94
2022-08-20T21:48:06.410Z,101324.91
2022-08-20T21:50:35.062Z,101325.91
2022-08-20T21:53:12.755Z,101319.63
2022-08-20T21:55:43.182Z,101322.34
2022-08-20T21:58:13.747Z,101321.81
2022-08-20T22:00:57.524Z,101317.03
2022-08-20T22:03:30.327Z,101322.44
2022-08-20T22:06:06.287Z,101315.97
2022-08-20T22:08:44.418Z,101312.19
2022-08-20T22:11:15.774Z,101309.88
2022-08-20T22:13:46.726Z,101312.25
2022-08-20T22:16:21.676Z,101310.53
2022-08-20T22:18:52.883Z,101312.59
2022-08-20T22:21:27.158Z,101307.88
2022-08-20T22:24:06.017Z,101302.94
2022-08-20T22:26:40.762Z,101315.69
2022-08-20T22:29:12.356Z,101311.63
2022-08-20T22:31:45.465Z,101304.44
2022-08-20T22:34:18.639Z,101300.00
2022-08-20T22:36:49.694Z,101305.47
2022-08-20T22:39:21.424Z,101301.38
2022-08-20T22:41:51.310Z,101300.66
2022-08-20T22:44:20.262Z,101304.09
2022-08-20T22:46:53.895Z,101298.34
2022-08-20T22:49:30.441Z,101299.00
2022-08-20T22:51:59.490Z,101297.75
2022-08-20T22:54:29.904Z,101295.88
2022-08-20T22:56:58.648Z,101296.22
2022-08-20T22:59:27.983Z,101297.72
2022-08-20T23:05:34.030Z,101300.56
2022-08-20T23:08:03.153Z,101302.41
2022-08-20T23:10:33.971Z,101295.19
2022-08-20T23:13:03.024Z,101299.41
2022-08-20T23:15:34.473Z,101292.25
2022-08-20T23:18:08.332Z,101290.06
2022-08-20T23:20:39.347Z,101295.91
2022-08-20T23:23:08.092Z,101292.63
2022-08-20T23:25:37.445Z,101294.97
2022-08-20T23:28:06.356Z,101291.09
2022-08-20T23:30:35.804Z,101284.81
2022-08-20T23:33:05.525Z,101290.41
2022-08-20T23:35:34.233Z,101291.25
2022-08-20T23:38:04.963Z,101297.16
2022-08-20T23:40:33.863Z,101292.03
2022-08-20T23:43:02.829Z,101289.81
2022-08-20T23:45:33.422Z,101295.25
2022-08-20T23:48:02.688Z,101292.66
2022-08-20T23:50:33.322Z,101289.44
2022-08-20T23:53:04.484Z,101293.00
2022-08-20T23:55:34.167Z,101288.44
2022-08-20T23:58:05.580Z,101280.44
